Time;durP1;ratioP1;P1;durP2;ratioP2;P2;SDS_P1;SDS_P2;PMS_P1;PMS_P2;Temp;Humidity;BMP_temperature;BMP_pressure;BME280_temperature;BME280_humidity;BME280_pressure;Samples;Min_cycle;Max_cycle;Signal;HPM_P1;HPM_P2
2021/08/12 00:01:52;;;;;;;3.95;2.60;;;;;;;16.66;66.76;97163.17;128000;1090;26361;-84
2021/08/12 00:04:24;;;;;;;5.57;2.90;;;;;;;16.56;66.88;97170.34;128027;1090;28610;-83
2021/08/12 00:06:55;;;;;;;4.30;2.58;;;;;;;16.51;66.85;97165.11;128033;1090;37321;-83
2021/08/12 00:09:27;;;;;;;4.27;2.77;;;;;;;16.47;67.20;97172.17;127986;1090;28907;-82
2021/08/12 00:11:59;;;;;;;4.25;2.75;;;;;;;16.46;67.15;97181.27;128023;1090;25953;-83
2021/08/12 00:14:30;;;;;;;4.15;2.85;;;;;;;16.40;67.19;97179.81;127932;1090;32076;-82
2021/08/12 00:17:01;;;;;;;4.33;2.70;;;;;;;16.37;67.13;97188.45;127957;1090;29121;-84
2021/08/12 00:19:33;;;;;;;3.75;2.78;;;;;;;16.34;67.06;97194.41;127940;1090;28195;-84
2021/08/12 00:22:04;;;;;;;5.68;3.10;;;;;;;16.26;67.58;97197.77;127966;1090;27473;-82
2021/08/12 00:24:36;;;;;;;6.55;3.10;;;;;;;16.11;67.73;97192.75;127957;1089;36412;-83
2021/08/12 00:27:08;;;;;;;4.70;2.80;;;;;;;16.03;67.60;97199.58;127945;1090;26794;-83
2021/08/12 00:29:39;;;;;;;3.35;2.65;;;;;;;16.13;67.73;97203.94;127940;1090;31421;-84
2021/08/12 00:32:12;;;;;;;5.18;2.45;;;;;;;16.25;67.68;97206.89;127942;1090;29545;-82
2021/08/12 00:34:44;;;;;;;3.98;2.53;;;;;;;16.30;67.42;97198.75;127921;1090;34062;-82
2021/08/12 00:37:15;;;;;;;6.38;2.80;;;;;;;16.25;67.30;97198.88;127978;1089;30614;-82
2021/08/12 00:39:46;;;;;;;4.48;2.60;;;;;;;16.28;67.21;97203.61;127941;1090;31502;-83
2021/08/12 00:42:17;;;;;;;3.68;2.30;;;;;;;16.34;66.87;97199.75;127944;1090;36894;-83
2021/08/12 00:44:49;;;;;;;5.58;2.73;;;;;;;16.38;66.72;97199.94;127976;1090;28502;-83
2021/08/12 00:47:20;;;;;;;4.65;2.35;;;;;;;16.31;66.38;97197.66;127966;1090;30007;-83
2021/08/12 00:49:52;;;;;;;6.28;3.20;;;;;;;16.17;66.66;97194.20;127958;1090;27274;-83
2021/08/12 00:52:25;;;;;;;7.03;3.03;;;;;;;16.05;66.71;97202.77;128045;1089;33786;-82
2021/08/12 00:54:56;;;;;;;5.80;2.35;;;;;;;15.93;66.88;97200.59;128072;1090;25955;-83
2021/08/12 00:57:28;;;;;;;5.00;2.80;;;;;;;15.85;67.18;97201.27;128088;1090;25252;-83
2021/08/12 00:59:59;;;;;;;5.08;2.98;;;;;;;15.79;67.37;97199.01;127970;1090;27910;-82
2021/08/12 01:02:31;;;;;;;3.70;2.73;;;;;;;15.74;67.57;97202.55;127908;1090;66883;-82
2021/08/12 01:05:03;;;;;;;4.80;2.63;;;;;;;15.66;67.83;97205.93;127947;1090;29543;-83
2021/08/12 01:08:00;;;;;;;4.53;2.93;;;;;;;15.56;68.47;97200.73;127938;1090;26263;-82
2021/08/12 01:10:42;;;;;;;4.33;2.40;;;;;;;15.48;68.08;97199.52;127973;1090;28148;-85
2021/08/12 01:13:26;;;;;;;5.20;2.83;;;;;;;15.48;68.28;97204.86;127990;1090;24921;-83
2021/08/12 01:16:01;;;;;;;5.20;2.93;;;;;;;15.48;68.38;97204.07;128018;1090;27617;-82
2021/08/12 01:18:37;;;;;;;3.65;2.40;;;;;;;15.47;68.34;97207.83;127948;1090;28705;-83
2021/08/12 01:21:33;;;;;;;4.78;3.00;;;;;;;15.47;68.66;97207.83;127945;1090;29871;-83
2021/08/12 01:24:12;;;;;;;3.85;2.55;;;;;;;15.42;68.74;97201.50;127934;1090;25530;-82
2021/08/12 01:26:48;;;;;;;5.48;2.58;;;;;;;15.41;68.84;97213.28;127952;1090;27276;-83
2021/08/12 01:29:34;;;;;;;5.43;3.18;;;;;;;15.35;69.36;97211.80;128011;1090;28624;-83
2021/08/12 01:32:11;;;;;;;5.05;2.70;;;;;;;15.26;69.18;97202.06;127984;1090;28843;-83
2021/08/12 01:34:59;;;;;;;4.33;2.70;;;;;;;15.17;69.46;97204.61;128006;1090;26170;-82
2021/08/12 01:37:38;;;;;;;4.83;2.95;;;;;;;15.07;69.69;97215.48;128102;1090;24456;-82
2021/08/12 01:40:14;;;;;;;4.10;2.58;;;;;;;15.05;69.93;97206.94;127970;1090;25784;-84
2021/08/12 01:42:46;;;;;;;5.83;3.25;;;;;;;15.07;69.85;97212.80;127963;1090;29902;-84
2021/08/12 01:45:19;;;;;;;4.55;3.00;;;;;;;15.17;69.75;97209.95;127920;1088;40331;-84
2021/08/12 01:47:52;;;;;;;4.13;2.68;;;;;;;15.24;69.77;97204.24;127970;1090;28616;-82
2021/08/12 01:50:25;;;;;;;5.28;3.20;;;;;;;15.28;69.93;97206.02;128033;1090;29482;-82
2021/08/12 01:52:59;;;;;;;5.68;3.15;;;;;;;15.28;69.73;97199.89;128036;1090;25797;-83
2021/08/12 01:55:32;;;;;;;5.85;3.10;;;;;;;15.27;69.92;97204.44;127963;1090;27923;-83
2021/08/12 01:58:06;;;;;;;4.38;2.85;;;;;;;15.27;69.79;97204.44;127959;1090;29602;-82
2021/08/12 02:00:39;;;;;;;6.15;3.20;;;;;;;15.26;69.83;97208.20;127964;1088;30629;-83
2021/08/12 02:03:14;;;;;;;4.58;3.05;;;;;;;15.20;69.73;97209.39;127979;1090;27940;-83
2021/08/12 02:05:49;;;;;;;5.58;3.15;;;;;;;15.15;69.89;97206.78;127975;1090;24993;-83
2021/08/12 02:08:25;;;;;;;5.80;3.13;;;;;;;15.11;70.18;97206.58;127950;1090;26262;-82
2021/08/12 02:10:56;;;;;;;3.40;2.80;;;;;;;15.06;70.20;97214.69;128031;1090;29988;-83
2021/08/12 02:13:28;;;;;;;7.13;3.23;;;;;;;15.03;70.33;97207.23;128036;1090;37819;-82
2021/08/12 02:16:01;;;;;;;7.53;3.37;;;;;;;15.04;70.36;97214.16;127946;1090;37852;-83
2021/08/12 02:18:32;;;;;;;5.38;3.25;;;;;;;15.01;70.11;97205.95;127946;1090;26220;-83
2021/08/12 02:21:10;;;;;;;5.60;3.33;;;;;;;14.97;70.51;97211.08;127963;1090;33223;-83
2021/08/12 02:23:46;;;;;;;4.88;3.03;;;;;;;14.96;70.62;97214.05;127931;1090;39460;-83
2021/08/12 02:26:20;;;;;;;6.38;3.53;;;;;;;14.92;70.42;97213.84;127932;1090;32973;-82
2021/08/12 02:28:52;;;;;;;5.65;2.73;;;;;;;14.78;70.47;97211.11;127973;1090;25773;-83
2021/08/12 02:31:26;;;;;;;5.25;3.15;;;;;;;14.74;70.98;97207.42;128047;1090;28719;-83
2021/08/12 02:33:58;;;;;;;4.78;3.13;;;;;;;14.68;71.24;97211.26;128077;1090;24897;-83
2021/08/12 02:36:31;;;;;;;5.95;3.15;;;;;;;14.70;71.51;97211.76;127951;1090;27159;-82
2021/08/12 02:39:03;;;;;;;6.73;4.03;;;;;;;14.79;71.61;97204.69;127973;1090;27715;-82
2021/08/12 02:41:36;;;;;;;5.53;3.35;;;;;;;14.86;71.63;97204.31;127976;1090;35218;-84
2021/08/12 02:44:08;;;;;;;7.65;3.38;;;;;;;14.90;71.32;97207.19;127970;1089;27191;-83
2021/08/12 02:46:40;;;;;;;5.00;3.23;;;;;;;14.94;71.07;97206.33;127955;1089;28180;-82
2021/08/12 02:49:12;;;;;;;4.80;3.35;;;;;;;14.94;71.09;97214.34;127922;1090;28736;-82
2021/08/12 02:51:45;;;;;;;6.38;3.45;;;;;;;14.92;71.03;97210.35;127970;1089;30476;-82
2021/08/12 02:54:16;;;;;;;4.88;2.93;;;;;;;14.90;71.17;97212.52;127945;1090;26470;-84
2021/08/12 02:56:49;;;;;;;6.83;3.83;;;;;;;14.86;71.50;97209.65;127999;1090;26575;-82
2021/08/12 02:59:21;;;;;;;9.50;3.80;;;;;;;14.83;71.54;97208.36;127927;1090;29426;-83
2021/08/12 03:01:55;;;;;;;4.50;3.35;;;;;;;14.84;71.82;97211.82;127995;1089;27882;-83
2021/08/12 03:04:28;;;;;;;6.95;4.23;;;;;;;14.80;71.95;97208.95;128038;1090;28961;-83
2021/08/12 03:07:01;;;;;;;7.13;3.80;;;;;;;14.77;72.01;97206.04;127995;1090;30588;-81
2021/08/12 03:09:33;;;;;;;4.85;3.15;;;;;;;14.75;72.30;97208.21;127979;1088;28276;-83
2021/08/12 03:12:06;;;;;;;8.80;3.73;;;;;;;14.75;72.18;97214.34;127926;1090;48977;-83
2021/08/12 03:14:38;;;;;;;5.35;3.80;;;;;;;14.72;72.08;97214.92;127938;1090;52743;-82
2021/08/12 03:17:11;;;;;;;6.17;3.77;;;;;;;14.69;72.32;97215.52;127976;1090;26691;-82
2021/08/12 03:19:45;;;;;;;5.03;3.40;;;;;;;14.72;72.44;97219.47;127987;1090;26992;-83
2021/08/12 03:22:17;;;;;;;5.55;3.53;;;;;;;14.72;72.54;97217.59;127952;1090;30822;-83
2021/08/12 03:24:50;;;;;;;6.48;3.40;;;;;;;14.79;72.81;97226.05;127982;1089;28216;-82
2021/08/12 03:27:21;;;;;;;6.20;4.13;;;;;;;14.82;73.04;97222.79;127964;1090;29547;-83
2021/08/12 03:29:53;;;;;;;6.25;3.58;;;;;;;14.81;73.13;97226.55;127966;1090;28808;-84
2021/08/12 03:32:25;;;;;;;6.10;3.63;;;;;;;14.83;73.15;97224.38;128053;1090;28749;-83
2021/08/12 03:34:57;;;;;;;7.43;4.40;;;;;;;14.82;73.13;97217.45;127991;1090;31419;-83
2021/08/12 03:37:28;;;;;;;7.53;4.58;;;;;;;14.81;73.14;97223.88;128064;1090;54648;-83
2021/08/12 03:40:00;;;;;;;5.88;3.88;;;;;;;14.90;73.31;97225.88;127984;1090;28124;-82
2021/08/12 03:42:32;;;;;;;5.68;4.15;;;;;;;14.99;73.32;97229.48;127931;1090;35396;-82
2021/08/12 03:45:04;;;;;;;8.60;4.58;;;;;;;15.04;73.28;97232.06;127957;1090;31862;-83
2021/08/12 03:47:36;;;;;;;8.20;4.78;;;;;;;15.07;73.36;97232.30;127969;1090;27318;-83
2021/08/12 03:50:08;;;;;;;5.98;4.30;;;;;;;15.09;73.53;97227.45;127964;1089;29665;-83
2021/08/12 03:52:40;;;;;;;6.75;4.70;;;;;;;15.07;73.46;97223.48;127962;1090;26777;-82
2021/08/12 03:55:12;;;;;;;6.93;4.08;;;;;;;15.09;73.74;97229.33;127930;1090;72956;-82
2021/08/12 03:57:47;;;;;;;9.68;4.60;;;;;;;15.02;73.71;97228.89;127959;1090;26566;-83
2021/08/12 04:00:20;;;;;;;7.60;4.63;;;;;;;15.03;73.83;97235.81;127978;1090;25056;-82
2021/08/12 04:02:52;;;;;;;8.05;4.33;;;;;;;15.07;73.96;97240.30;127968;1090;28901;-82
2021/08/12 04:05:23;;;;;;;6.73;4.78;;;;;;;15.08;74.31;97241.09;127982;1090;26421;-83
2021/08/12 04:07:55;;;;;;;6.83;4.10;;;;;;;15.08;74.08;97233.88;128060;1090;27522;-83
2021/08/12 04:10:27;;;;;;;7.67;4.20;;;;;;;15.09;74.19;97235.46;128000;1090;28348;-83
2021/08/12 04:12:58;;;;;;;8.93;3.95;;;;;;;15.12;73.77;97240.21;128024;1090;32865;-83
2021/08/12 04:15:30;;;;;;;5.48;3.40;;;;;;;15.21;73.76;97245.69;127911;1090;32090;-81
2021/08/12 04:18:01;;;;;;;7.30;3.50;;;;;;;15.33;73.53;97250.55;127943;1090;29015;-82
2021/08/12 04:20:33;;;;;;;5.83;3.55;;;;;;;15.51;73.48;97256.95;127958;1090;28909;-83
2021/08/12 04:23:04;;;;;;;7.68;4.50;;;;;;;15.60;73.67;97255.20;127982;1090;32974;-82
2021/08/12 04:25:36;;;;;;;7.20;4.95;;;;;;;15.66;73.84;97254.04;128004;1090;28184;-82
2021/08/12 04:28:08;;;;;;;7.20;4.08;;;;;;;15.82;73.68;97251.88;127946;1090;32330;-84
2021/08/12 04:30:40;;;;;;;8.05;4.65;;;;;;;15.90;73.57;97251.97;127947;1090;35828;-83
2021/08/12 04:33:12;;;;;;;5.95;4.00;;;;;;;16.10;73.42;97247.33;127935;1090;30159;-82
2021/08/12 04:35:44;;;;;;;6.60;4.40;;;;;;;16.27;73.34;97255.55;127976;1090;31823;-84
2021/08/12 04:38:16;;;;;;;6.90;4.13;;;;;;;16.50;72.89;97253.73;127971;1090;35767;-82
2021/08/12 04:40:47;;;;;;;8.30;4.30;;;;;;;17.01;72.53;97248.05;127943;1088;30056;-83
2021/08/12 04:43:19;;;;;;;5.40;3.70;;;;;;;18.50;72.39;97245.80;127977;1090;29006;-82
2021/08/12 04:45:51;;;;;;;6.85;4.23;;;;;;;20.26;70.35;97258.36;127934;1090;26830;-83
2021/08/12 04:48:22;;;;;;;6.25;4.03;;;;;;;21.88;67.32;97251.20;127980;1090;28536;-82
2021/08/12 04:50:54;;;;;;;7.20;3.93;;;;;;;23.04;63.08;97255.20;128001;1090;27646;-82
2021/08/12 04:53:26;;;;;;;7.23;3.93;;;;;;;23.90;60.98;97258.30;128028;1090;30242;-84
2021/08/12 04:55:57;;;;;;;6.98;3.95;;;;;;;24.33;56.88;97259.36;128023;1090;31790;-83
2021/08/12 04:58:29;;;;;;;6.35;4.18;;;;;;;24.69;57.67;97267.17;127911;1089;28686;-85
2021/08/12 05:01:00;;;;;;;6.63;4.33;;;;;;;25.29;54.60;97264.17;127945;1090;29297;-82
2021/08/12 05:03:32;;;;;;;6.13;3.85;;;;;;;25.82;53.48;97262.48;127932;1090;40421;-84
2021/08/12 05:06:05;;;;;;;6.18;3.90;;;;;;;26.21;52.16;97256.92;127949;1090;26648;-83
2021/08/12 05:08:37;;;;;;;7.18;4.23;;;;;;;26.92;51.38;97261.48;127928;1090;34566;-83
2021/08/12 05:11:11;;;;;;;5.55;4.10;;;;;;;27.67;50.03;97264.34;127913;1090;35127;-84
2021/08/12 05:13:43;;;;;;;7.20;4.10;;;;;;;27.99;47.79;97264.63;127902;1090;34589;-84
2021/08/12 05:16:14;;;;;;;7.10;4.03;;;;;;;28.64;47.87;97266.72;127946;1090;29869;-84
2021/08/12 05:18:46;;;;;;;7.58;4.63;;;;;;;29.09;46.06;97273.62;127955;1090;32818;-83
2021/08/12 05:21:17;;;;;;;6.05;3.78;;;;;;;29.74;45.36;97280.90;127940;1090;31246;-83
2021/08/12 05:23:49;;;;;;;5.60;3.98;;;;;;;30.13;43.54;97277.46;127998;1090;29045;-83
2021/08/12 05:26:20;;;;;;;8.18;4.00;;;;;;;30.50;42.82;97273.52;127910;1090;36210;-83
2021/08/12 05:28:51;;;;;;;8.10;4.10;;;;;;;30.73;42.08;97277.44;127983;1090;28015;-84
2021/08/12 05:31:23;;;;;;;6.65;3.68;;;;;;;31.36;41.43;97279.59;127982;1089;29773;-84
2021/08/12 05:33:55;;;;;;;4.85;3.40;;;;;;;31.62;41.17;97281.81;128027;1090;27507;-84
2021/08/12 05:36:26;;;;;;;6.23;4.00;;;;;;;32.34;40.00;97282.92;128019;1090;30352;-84
2021/08/12 05:38:58;;;;;;;5.25;3.28;;;;;;;32.73;38.33;97276.30;128064;1088;29482;-84
2021/08/12 05:41:29;;;;;;;5.23;3.23;;;;;;;32.90;38.04;97280.06;127956;1090;31491;-84
2021/08/12 05:44:01;;;;;;;5.48;4.00;;;;;;;33.33;37.68;97288.59;127937;1088;43345;-83
2021/08/12 05:46:32;;;;;;;5.13;3.18;;;;;;;33.90;36.05;97285.12;127966;1088;28583;-84
2021/08/12 05:49:04;;;;;;;5.70;3.40;;;;;;;34.17;35.70;97280.37;127958;1090;28363;-83
2021/08/12 05:51:35;;;;;;;5.13;3.13;;;;;;;34.47;36.02;97279.50;127918;1090;31713;-83
2021/08/12 05:54:07;;;;;;;3.58;3.00;;;;;;;35.11;34.89;97283.09;127978;1090;27651;-83
2021/08/12 05:56:38;;;;;;;3.93;3.45;;;;;;;35.39;34.15;97276.25;127944;1089;29364;-84
2021/08/12 05:59:10;;;;;;;5.60;3.53;;;;;;;35.74;33.38;97284.94;127980;1090;29618;-84
2021/08/12 06:01:41;;;;;;;7.40;3.70;;;;;;;35.97;32.29;97285.61;127932;1090;28773;-83
2021/08/12 06:04:13;;;;;;;5.13;3.50;;;;;;;36.59;31.78;97282.93;127990;1090;32626;-84
2021/08/12 06:06:45;;;;;;;5.73;3.25;;;;;;;36.60;31.17;97281.74;127902;1090;30182;-84
2021/08/12 06:09:16;;;;;;;3.78;2.95;;;;;;;37.01;31.95;97278.27;127976;1090;30372;-84
2021/08/12 06:11:48;;;;;;;6.78;3.25;;;;;;;37.99;31.66;97284.11;127928;1090;36306;-84
2021/08/12 06:14:19;;;;;;;4.48;3.03;;;;;;;38.74;30.58;97294.78;127935;1090;33734;-84
2021/08/12 06:16:51;;;;;;;4.00;3.25;;;;;;;38.99;30.05;97293.88;127973;1090;29678;-84
2021/08/12 06:19:22;;;;;;;4.60;3.40;;;;;;;38.87;29.02;97292.73;127872;1090;33827;-84
2021/08/12 06:21:54;;;;;;;3.93;3.10;;;;;;;39.31;28.89;97287.98;128003;1089;31584;-84
2021/08/12 06:24:25;;;;;;;5.38;3.60;;;;;;;39.60;27.57;97287.72;127990;1090;31549;-84
2021/08/12 06:26:57;;;;;;;3.58;2.98;;;;;;;39.84;27.55;97287.19;128002;1090;36459;-84
2021/08/12 06:29:28;;;;;;;5.45;3.13;;;;;;;39.66;26.79;97293.44;127962;1090;30608;-83
2021/08/12 06:32:00;;;;;;;4.30;2.90;;;;;;;39.91;26.80;97296.02;127899;1090;35967;-84
2021/08/12 06:34:31;;;;;;;3.67;3.20;;;;;;;39.85;26.14;97292.30;127963;1090;30906;-83
2021/08/12 06:37:02;;;;;;;3.25;2.80;;;;;;;40.04;26.45;97295.94;127951;1090;33583;-83
2021/08/12 06:39:34;;;;;;;4.05;2.68;;;;;;;40.62;25.60;97298.71;127920;1090;34068;-83
2021/08/12 06:42:06;;;;;;;4.83;2.88;;;;;;;40.16;24.55;97297.83;127904;1090;32083;-84
2021/08/12 06:44:37;;;;;;;2.70;2.08;;;;;;;39.61;23.18;97291.27;127946;1088;31926;-84
2021/08/12 06:47:09;;;;;;;3.05;2.48;;;;;;;38.85;23.13;97292.38;127903;1090;31977;-82
2021/08/12 06:49:41;;;;;;;2.75;1.90;;;;;;;38.50;23.38;97297.14;127912;1090;35285;-83
2021/08/12 06:52:13;;;;;;;3.17;2.30;;;;;;;38.09;23.18;97296.06;127923;1090;42023;-83
2021/08/12 06:54:44;;;;;;;3.98;2.48;;;;;;;37.55;22.72;97296.13;127962;1090;31627;-83
2021/08/12 06:57:16;;;;;;;3.85;2.20;;;;;;;37.12;23.44;97287.05;127952;1089;30259;-83
2021/08/12 06:59:47;;;;;;;3.03;2.30;;;;;;;37.27;24.15;97298.51;127907;1090;33242;-83
2021/08/12 07:02:18;;;;;;;3.83;2.05;;;;;;;38.45;24.16;97294.95;127874;1090;34117;-84
2021/08/12 07:04:50;;;;;;;4.13;2.40;;;;;;;39.19;22.69;97297.92;127928;1090;38006;-84
2021/08/12 07:07:21;;;;;;;4.48;2.40;;;;;;;38.62;22.04;97299.11;127903;1090;34207;-83
2021/08/12 07:10:01;;;;;;;2.93;1.80;;;;;;;37.86;22.78;97297.17;127832;1090;42458;-83
2021/08/12 07:12:32;;;;;;;2.23;1.88;;;;;;;39.34;23.54;97309.27;127903;1090;34205;-82
2021/08/12 07:15:08;;;;;;;2.53;2.00;;;;;;;40.95;22.95;97309.25;127877;1090;43436;-83
2021/08/12 07:17:40;;;;;;;3.68;2.18;;;;;;;40.72;21.93;97312.63;127877;1090;34595;-83
2021/08/12 07:20:13;;;;;;;2.93;1.88;;;;;;;41.45;22.83;97309.84;127894;1090;58583;-84
2021/08/12 07:22:44;;;;;;;3.97;2.33;;;;;;;41.69;20.87;97307.95;127878;1090;34667;-83
2021/08/12 07:25:16;;;;;;;2.30;2.10;;;;;;;40.57;20.97;97318.02;127890;1090;54634;-84
2021/08/12 07:27:49;;;;;;;3.23;2.30;;;;;;;37.03;22.84;97306.28;127892;1090;29939;-84
2021/08/12 07:30:21;;;;;;;2.95;2.30;;;;;;;35.27;24.53;97310.72;127918;1088;36564;-83
2021/08/12 07:32:52;;;;;;;2.68;2.38;;;;;;;35.53;25.26;97319.30;127919;1090;78870;-84
2021/08/12 07:35:24;;;;;;;3.18;2.33;;;;;;;34.68;25.11;97325.19;127892;1090;35583;-84
2021/08/12 07:37:55;;;;;;;2.23;1.95;;;;;;;33.01;26.08;97319.97;128071;1090;33627;-83
2021/08/12 07:40:28;;;;;;;3.40;2.00;;;;;;;34.48;27.05;97327.09;127980;1090;32171;-82
2021/08/12 07:43:00;;;;;;;3.30;2.10;;;;;;;34.89;24.64;97328.78;127953;1090;30636;-83
2021/08/12 07:45:31;;;;;;;4.65;1.98;;;;;;;33.39;25.03;97332.94;127933;1090;32207;-82
2021/08/12 07:48:03;;;;;;;3.73;2.25;;;;;;;35.08;25.75;97328.81;127986;1090;29991;-84
2021/08/12 07:50:35;;;;;;;3.30;2.58;;;;;;;34.65;24.22;97337.05;127946;1090;43561;-84
2021/08/12 07:53:06;;;;;;;3.18;2.48;;;;;;;34.43;26.12;97333.86;127942;1090;32256;-83
2021/08/12 07:55:38;;;;;;;3.33;2.70;;;;;;;37.04;25.81;97324.42;127932;1090;35034;-83
2021/08/12 07:58:10;;;;;;;3.43;2.78;;;;;;;38.89;24.85;97335.42;127970;1090;30464;-83
2021/08/12 08:00:41;;;;;;;3.97;2.47;;;;;;;40.91;23.96;97330.89;127961;1090;39484;-83
2021/08/12 08:03:12;;;;;;;4.55;2.40;;;;;;;42.52;22.32;97335.48;127917;1090;30348;-84
2021/08/12 08:05:44;;;;;;;4.07;2.17;;;;;;;43.72;22.45;97336.82;127959;1089;30050;-83
2021/08/12 08:08:16;;;;;;;2.45;2.00;;;;;;;42.19;19.90;97341.05;127917;1090;41319;-83
2021/08/12 08:10:47;;;;;;;2.20;1.93;;;;;;;40.25;20.49;97342.30;127916;1090;32896;-83
2021/08/12 08:13:19;;;;;;;3.18;2.33;;;;;;;38.42;20.97;97346.46;127877;1090;28812;-83
2021/08/12 08:15:51;;;;;;;3.08;2.13;;;;;;;37.40;22.10;97343.58;127900;1090;32974;-84
2021/08/12 08:18:22;;;;;;;2.95;2.33;;;;;;;37.45;23.13;97353.34;127917;1090;35318;-83
2021/08/12 08:20:54;;;;;;;2.50;2.03;;;;;;;38.96;21.73;97347.47;127931;1090;29628;-83
2021/08/12 08:23:26;;;;;;;3.45;2.48;;;;;;;39.07;19.85;97347.88;128013;1089;27265;-83
2021/08/12 08:25:57;;;;;;;4.80;2.55;;;;;;;36.41;21.62;97343.38;127960;1090;37044;-83
2021/08/12 08:28:29;;;;;;;3.30;2.53;;;;;;;36.08;23.77;97354.38;128038;1090;33502;-83
2021/08/12 08:31:00;;;;;;;4.80;1.98;;;;;;;36.82;21.59;97360.13;127931;1090;36077;-83
2021/08/12 08:33:35;;;;;;;3.60;2.40;;;;;;;37.07;22.55;97351.19;127892;1089;34345;-82
2021/08/12 08:36:08;;;;;;;5.27;2.57;;;;;;;35.79;21.82;97353.42;127968;1090;30969;-84
2021/08/12 08:38:39;;;;;;;4.78;2.13;;;;;;;34.69;23.35;97362.55;127973;1090;44800;-83
2021/08/12 08:41:11;;;;;;;2.38;1.83;;;;;;;34.64;23.64;97365.02;127925;1090;30618;-83
2021/08/12 08:43:47;;;;;;;2.77;2.03;;;;;;;34.44;24.05;97356.67;127904;1090;32224;-83
2021/08/12 08:46:21;;;;;;;5.75;2.68;;;;;;;33.42;22.93;97351.36;127952;1090;35693;-83
2021/08/12 08:48:58;;;;;;;8.78;3.58;;;;;;;31.57;25.14;97348.80;127989;1090;32611;-84
2021/08/12 08:51:35;;;;;;;4.88;2.63;;;;;;;31.02;26.85;97343.09;127883;1090;32863;-83
2021/08/12 08:54:07;;;;;;;4.18;2.55;;;;;;;31.59;27.19;97357.41;127963;1090;29073;-83
2021/08/12 08:56:40;;;;;;;2.73;2.33;;;;;;;31.60;26.35;97349.97;127937;1090;36714;-83
2021/08/12 08:59:11;;;;;;;3.33;2.55;;;;;;;31.15;26.85;97357.92;127903;1090;33430;-82
2021/08/12 09:01:43;;;;;;;2.78;1.93;;;;;;;30.85;26.76;97357.59;127942;1090;37360;-83
2021/08/12 09:04:15;;;;;;;3.93;1.90;;;;;;;30.57;27.04;97359.15;127906;1090;39399;-83
2021/08/12 09:06:47;;;;;;;2.17;1.80;;;;;;;30.51;27.48;97374.38;127998;1090;28144;-83
2021/08/12 09:09:19;;;;;;;3.38;2.33;;;;;;;30.21;26.83;97360.29;127929;1090;29787;-83
2021/08/12 09:11:50;;;;;;;3.70;2.60;;;;;;;29.68;28.19;97366.37;127954;1090;31220;-83
2021/08/12 09:14:36;;;;;;;5.85;2.70;;;;;;;29.72;28.01;97364.45;127933;1090;45635;-84
2021/08/12 09:17:26;;;;;;;4.65;2.65;;;;;;;29.06;28.04;97361.77;127943;1090;36381;-83
2021/08/12 09:20:08;;;;;;;3.78;2.08;;;;;;;29.05;29.81;97365.66;128008;1090;27683;-84
2021/08/12 09:22:58;;;;;;;3.20;2.38;;;;;;;28.96;29.19;97368.71;127893;1090;30538;-83
2021/08/12 09:25:40;;;;;;;3.73;2.15;;;;;;;27.96;28.93;97368.97;127990;1093;34449;-83
2021/08/12 09:28:18;;;;;;;3.60;2.65;;;;;;;26.92;31.77;97373.05;127931;1090;31120;-83
2021/08/12 09:31:15;;;;;;;3.75;3.03;;;;;;;26.95;32.29;97371.53;127946;1090;31101;-83
2021/08/12 09:33:55;;;;;;;3.98;2.25;;;;;;;27.14;32.85;97363.27;127928;1090;29233;-83
2021/08/12 09:36:29;;;;;;;3.25;2.38;;;;;;;27.38;32.36;97378.38;128058;1089;28559;-83
2021/08/12 09:39:16;;;;;;;3.73;2.58;;;;;;;27.48;33.97;97377.73;128007;1090;27441;-83
2021/08/12 09:41:50;;;;;;;3.68;2.50;;;;;;;27.66;33.05;97372.53;127909;1090;31219;-83
2021/08/12 09:44:41;;;;;;;3.00;2.53;;;;;;;27.86;33.54;97375.08;127937;1090;33259;-84
2021/08/12 09:47:14;;;;;;;4.38;2.55;;;;;;;27.95;33.02;97383.75;127978;1090;29189;-83
2021/08/12 09:49:52;;;;;;;3.93;2.40;;;;;;;27.66;32.49;97383.43;127907;1090;36859;-84
2021/08/12 09:52:29;;;;;;;4.45;2.40;;;;;;;27.04;33.07;97369.38;127897;1090;49164;-83
2021/08/12 09:55:05;;;;;;;3.63;2.13;;;;;;;26.80;32.92;97370.53;127937;1090;33394;-83
2021/08/12 09:57:48;;;;;;;2.93;2.13;;;;;;;26.57;32.93;97367.83;127970;1090;55685;-83
2021/08/12 10:00:34;;;;;;;3.35;2.33;;;;;;;26.23;33.40;97375.01;127930;1090;34238;-83
2021/08/12 10:03:24;;;;;;;5.43;2.80;;;;;;;25.84;33.69;97371.56;127973;1090;28634;-83
2021/08/12 10:05:58;;;;;;;5.35;2.80;;;;;;;25.31;35.09;97382.09;128069;1089;39256;-83
2021/08/12 10:08:35;;;;;;;3.95;2.40;;;;;;;25.06;35.56;97373.44;128025;1090;30159;-83
2021/08/12 10:11:21;;;;;;;3.55;2.38;;;;;;;25.15;37.24;97381.36;127931;1090;33964;-83
2021/08/12 10:13:54;;;;;;;2.93;2.43;;;;;;;24.96;36.58;97373.94;127987;1090;30371;-83
2021/08/12 10:16:30;;;;;;;5.23;2.53;;;;;;;24.54;36.21;97368.31;128054;1090;32110;-83
2021/08/12 10:19:03;;;;;;;3.20;2.53;;;;;;;24.08;36.89;97369.83;127964;1090;30424;-83
2021/08/12 10:21:39;;;;;;;3.73;2.48;;;;;;;23.90;36.98;97372.05;127933;1090;28181;-84
2021/08/12 10:24:11;;;;;;;4.08;2.63;;;;;;;23.66;37.44;97373.75;127941;1089;33490;-83
2021/08/12 10:26:47;;;;;;;4.13;2.68;;;;;;;23.51;38.00;97370.95;127975;1090;28491;-84
2021/08/12 10:29:23;;;;;;;4.30;2.68;;;;;;;23.59;39.38;97373.53;127930;1090;26726;-83
2021/08/12 10:31:56;;;;;;;6.95;3.00;;;;;;;24.01;38.77;97372.34;128020;1090;50904;-83
2021/08/12 10:34:29;;;;;;;3.28;2.58;;;;;;;24.32;38.40;97377.03;127992;1089;40780;-82
2021/08/12 10:37:01;;;;;;;4.45;2.43;;;;;;;24.17;38.61;97373.14;128018;1090;28612;-82
2021/08/12 10:39:33;;;;;;;4.48;2.68;;;;;;;24.03;37.75;97370.85;127942;1090;28795;-83
2021/08/12 10:42:06;;;;;;;4.45;2.55;;;;;;;24.15;38.29;97368.08;127950;1090;28228;-83
2021/08/12 10:44:40;;;;;;;4.53;2.63;;;;;;;24.43;38.83;97375.38;127972;1090;33039;-83
2021/08/12 10:47:40;;;;;;;3.48;2.65;;;;;;;24.47;38.29;97366.19;127972;1090;34935;-83
2021/08/12 10:50:36;;;;;;;5.90;3.10;;;;;;;24.11;38.38;97364.50;127977;1090;30656;-84
2021/08/12 10:53:20;;;;;;;4.45;2.38;;;;;;;23.82;38.98;97373.00;127983;1090;28735;-82
2021/08/12 10:56:11;;;;;;;3.60;2.58;;;;;;;23.75;38.92;97375.50;127971;1090;37965;-82
2021/08/12 10:59:06;;;;;;;2.60;2.20;;;;;;;23.59;37.66;97375.45;127954;1093;32117;-83
2021/08/12 11:01:41;;;;;;;3.08;2.20;;;;;;;23.77;37.99;97374.02;127935;1090;33313;-83
2021/08/12 11:04:13;;;;;;;3.45;2.20;;;;;;;23.94;37.95;97364.83;127921;1088;30512;-83
2021/08/12 11:06:49;;;;;;;3.20;2.20;;;;;;;24.19;37.38;97362.73;127961;1090;28581;-82
2021/08/12 11:09:57;;;;;;;4.60;2.65;;;;;;;24.25;38.78;97367.57;127941;1090;28342;-84
2021/08/12 11:13:03;;;;;;;5.05;2.23;;;;;;;24.44;38.12;97357.98;127977;1090;30715;-83
2021/08/12 11:15:59;;;;;;;3.90;2.60;;;;;;;24.67;38.41;97361.66;127976;1090;34884;-84
2021/08/12 11:18:49;;;;;;;4.75;2.70;;;;;;;24.82;36.95;97357.34;127964;1090;28443;-83
2021/08/12 11:21:42;;;;;;;4.03;2.60;;;;;;;24.74;37.35;97367.23;128008;1088;30821;-84
2021/08/12 11:24:35;;;;;;;3.90;2.43;;;;;;;24.60;36.28;97366.89;128000;1090;30075;-83
2021/08/12 11:27:08;;;;;;;4.20;2.73;;;;;;;24.71;36.56;97359.80;127961;1090;32916;-83
2021/08/12 11:29:40;;;;;;;4.80;2.70;;;;;;;24.78;36.84;97362.70;127985;1090;29487;-84
2021/08/12 11:32:14;;;;;;;4.60;2.45;;;;;;;24.81;37.28;97361.98;127920;1090;27748;-83
2021/08/12 11:34:58;;;;;;;5.63;3.00;;;;;;;24.78;36.80;97365.41;127958;1090;31968;-83
2021/08/12 11:37:30;;;;;;;4.98;2.58;;;;;;;24.81;37.09;97361.98;128046;1090;49439;-83
2021/08/12 11:40:04;;;;;;;4.03;2.60;;;;;;;24.78;36.11;97362.70;127962;1090;28674;-83
2021/08/12 11:42:40;;;;;;;4.33;2.95;;;;;;;24.51;36.36;97361.67;127998;1090;26677;-84
2021/08/12 11:45:14;;;;;;;3.90;2.50;;;;;;;24.33;36.93;97355.00;127960;1090;28027;-84
2021/08/12 11:47:46;;;;;;;3.65;2.68;;;;;;;24.47;37.78;97351.86;127959;1090;41090;-83
2021/08/12 11:50:18;;;;;;;3.93;2.80;;;;;;;24.51;37.15;97358.17;128014;1090;27692;-83
2021/08/12 11:52:51;;;;;;;5.45;2.70;;;;;;;24.25;37.31;97351.31;127965;1090;26588;-82
2021/08/12 11:55:24;;;;;;;3.95;2.70;;;;;;;23.97;37.51;97356.00;127937;1090;27746;-84
2021/08/12 11:57:58;;;;;;;4.93;2.83;;;;;;;23.83;38.63;97348.28;128067;1090;28829;-84